Elroy, Wisconsin
Current Conditions -  °F | °C
As of 1:58 PM on Monday 22 Dec 2014 (Local Time) from KVOK Reporting Station
Drizzle Drizzle  
Wind Chill: 31°   Ceiling: 10000
Heat Index: 37°   Visibility: 7mi
Dew Point: 37°   Wind: 9mph
Humidity: 100%   Direction: 120°ESE
Pressure: 29.69"   Gusts: NA
Location:  43.74°N, 90.27°W
Report Text: KVOK 221958Z 12008KT 7SM -DZ SCT026 SCT055 OVC100 03/03 A2969 RMK AO2A SLP065
Loading
Personal Weather Stations






























Interactive Weather Map New forecast layout! Learn more

10-Day Weather Forecast

Advertisements
Track Severe Weather on mobile